Leyla Kalkavan — V7JG9 — position and weather

sailwx.info

Track history (hours):
 
Tides and Currents Weather Stations Pressure Air Temp Water Temp Dewpoint Dewpoint Depression Visibility Wind Speed Wind Dir Waves Ship Positions

Leyla Kalkavan

Last reported at 2017-Dec-17 00:30 UTC. Time now 2017-Dec-17 00:39 UTC.
Position N 51°58' E 004°04'.

Type: Tanker. MMSI: 538007390.

Date/timePositionNaut miles runAvg speedWind from/ knotsBaromVisibWave heightAir tempDewpointWater temp
2017-Dec-17 00:30N 51°58' E 004°04'0 0.0
2017-Dec-16 23:57N 51°58' E 004°04'0 0.0
2017-Dec-16 23:30N 51°58' E 004°04'0 0.0
2017-Dec-16 22:57N 51°58' E 004°04'0 0.0
2017-Dec-16 22:30N 51°58' E 004°04'0 0.0
2017-Dec-16 22:00N 51°58' E 004°04'0 0.0
2017-Dec-16 21:30N 51°58' E 004°04'0 0.0
2017-Dec-16 20:57N 51°58' E 004°04'0 0.0
2017-Dec-16 20:27N 51°58' E 004°04'0 0.0
2017-Dec-16 19:57N 51°58' E 004°04'0 0.3
2017-Dec-16 19:30N 51°58' E 004°04'1 1.8
2017-Dec-16 19:00N 51°59' E 004°04'2 4.8
2017-Dec-16 18:30N 51°60' E 004°01'4 7.8
2017-Dec-16 18:00N 52°01' E 003°55'5 9.6
2017-Dec-16 17:30N 52°01' E 003°47'4 8.0
2017-Dec-16 17:00N 52°01' E 003°40'19 9.0
2017-Dec-16 14:52N 51°57' E 003°10'15 1.3
2017-Dec-16 02:54N 52°04' E 002°48'511.6
2017-Dec-16 02:30N 52°07' E 002°52'611.5
2017-Dec-16 02:00N 52°12' E 002°59'611.4
2017-Dec-16 01:29N 52°16' E 003°05'3812.2
2017-Dec-15 22:22N 52°46' E 003°43'513.5
2017-Dec-15 21:58N 52°50' E 003°49'613.7
2017-Dec-15 21:30N 52°55' E 003°56'713.6
2017-Dec-15 21:00N 52°60' E 004°04'1513.7
2017-Dec-15 19:55N 53°09' E 004°23'2312.9
2017-Dec-15 18:08N 53°31' E 004°36'11912.2
2017-Dec-15 08:25N 55°12' E 006°23'612.4
2017-Dec-15 07:57N 55°17' E 006°29'612.4
2017-Dec-15 07:29N 55°22' E 006°35'612.0
2017-Dec-15 07:01N 55°26' E 006°41'612.0
2017-Dec-15 06:30N 55°31' E 006°47'611.9
2017-Dec-15 05:58N 55°36' E 006°53'611.8
2017-Dec-15 05:30N 55°41' E 006°59'16810.5
2017-Dec-14 13:32N 57°48' E 010°20'012.0
2017-Dec-14 13:30N 57°48' E 010°20'611.7
2017-Dec-14 13:00N 57°49' E 010°31'510.7
2017-Dec-14 12:30N 57°50' E 010°41'510.4
2017-Dec-14 12:00N 57°47' E 010°49'5 9.5
2017-Dec-14 11:30N 57°44' E 010°56'4 8.5
2017-Dec-14 11:00N 57°40' E 011°01'611.9
2017-Dec-14 10:30N 57°37' E 011°10'612.0
2017-Dec-14 10:00N 57°33' E 011°18'612.0
2017-Dec-14 09:31N 57°28' E 011°25'612.3
2017-Dec-14 09:00N 57°22' E 011°29'612.7
2017-Dec-14 08:30N 57°16' E 011°33'612.5
2017-Dec-14 08:00N 57°11' E 011°37'712.5
2017-Dec-14 07:25N 57°04' E 011°42'10810.9
2017-Dec-13 21:27N 55°18' E 011°03'511.3
2017-Dec-13 21:00N 55°13' E 011°06'612.0
2017-Dec-13 20:30N 55°08' E 010°59'612.6
2017-Dec-13 20:00N 55°02' E 010°60'612.3
2017-Dec-13 19:30N 54°57' E 010°54'613.0
2017-Dec-13 19:00N 54°50' E 010°50'612.8
2017-Dec-13 18:30N 54°44' E 010°47'510.9
2017-Dec-13 18:00N 54°39' E 010°51'612.6
2017-Dec-13 17:30N 54°36' E 011°00'611.7
2017-Dec-13 17:00N 54°36' E 011°11'611.9
2017-Dec-13 16:30N 54°33' E 011°20'611.8
2017-Dec-13 16:00N 54°31' E 011°29'611.6
2017-Dec-13 15:30N 54°28' E 011°38'611.5
2017-Dec-13 15:00N 54°27' E 011°47'611.5
2017-Dec-13 14:29N 54°26' E 011°58'510.8
2017-Dec-13 14:00N 54°27' E 012°07'4 8.7
2017-Dec-13 13:30N 54°29' E 012°13'5 9.5
2017-Dec-13 13:00N 54°34' E 012°15'74 9.0
2017-Dec-13 04:48N 55°07' E 014°10'310.1
2017-Dec-13 04:30N 55°08' E 014°15'510.3
2017-Dec-13 04:00N 55°10' E 014°23'510.2
2017-Dec-13 03:30N 55°13' E 014°30'510.3
2017-Dec-13 03:00N 55°16' E 014°37'510.2
2017-Dec-13 02:30N 55°19' E 014°44'5 9.3
2017-Dec-13 02:00N 55°19' E 014°52'2 5.0
2017-Dec-13 01:30N 55°19' E 014°56'3 6.5
2017-Dec-13 01:00N 55°21' E 015°01'510.5
2017-Dec-13 00:30N 55°23' E 015°09'611.0
2017-Dec-13 00:00N 55°25' E 015°18'611.2
2017-Dec-12 23:30N 55°27' E 015°28'911.3
2017-Dec-12 22:42N 55°31' E 015°42'211.2
2017-Dec-12 22:30N 55°32' E 015°46'911.1
2017-Dec-12 21:42N 55°35' E 016°00'211.0
2017-Dec-12 21:30N 55°36' E 016°04'511.0
2017-Dec-12 21:00N 55°38' E 016°13'611.1
2017-Dec-12 20:30N 55°40' E 016°22'611.2
2017-Dec-12 20:00N 55°43' E 016°31'32110.9
2017-Dec-11 14:31N 59°38' E 023°20'112.5
2017-Dec-11 14:26N 59°38' E 023°22'612.5
2017-Dec-11 13:59N 59°40' E 023°32'612.6
2017-Dec-11 13:29N 59°41' E 023°44'612.5
2017-Dec-11 13:00N 59°43' E 023°56'712.4
2017-Dec-11 12:28N 59°45' E 024°08'612.5
2017-Dec-11 12:00N 59°46' E 024°19'612.5
2017-Dec-11 11:30N 59°48' E 024°31'612.5
2017-Dec-11 11:00N 59°49' E 024°43'612.7
2017-Dec-11 10:30N 59°51' E 024°56'612.0
2017-Dec-11 10:00N 59°52' E 025°07'612.0
2017-Dec-11 09:30N 59°53' E 025°19'711.8
2017-Dec-11 08:57N 59°54' E 025°32'2112.1
2017-Dec-11 07:15N 59°58' E 026°12'312.3
2017-Dec-11 07:00N 59°59' E 026°18'612.1
2017-Dec-11 06:30N 60°01' E 026°29'611.7
2017-Dec-11 06:00N 60°01' E 026°41'612.4
2017-Dec-11 05:30N 60°00' E 026°53'611.5
2017-Dec-11 05:00N 59°60' E 027°05'612.1
2017-Dec-11 04:30N 60°03' E 027°15'611.9
2017-Dec-11 04:00N 60°06' E 027°25'612.1
2017-Dec-11 03:30N 60°09' E 027°36'611.0
2017-Dec-11 03:00N 60°12' E 027°46'510.5
2017-Dec-11 02:30N 60°11' E 027°56'612.2
2017-Dec-11 02:00N 60°09' E 028°08'611.8
2017-Dec-11 01:30N 60°07' E 028°19'611.4
2017-Dec-11 01:00N 60°04' E 028°28'510.0
2017-Dec-11 00:30N 60°01' E 028°37'510.2
2017-Dec-11 00:00N 59°56' E 028°35'4 8.8
2017-Dec-10 23:30N 59°53' E 028°30'510.7
2017-Dec-10 23:00N 59°48' E 028°25'1 2.2
2017-Dec-10 22:23N 59°46' E 028°25'0 0.0
2017-Dec-10 21:53N 59°46' E 028°25'0 0.0
2017-Dec-10 21:23N 59°46' E 028°25'0 0.0
2017-Dec-10 20:56N 59°46' E 028°25'0 0.0
2017-Dec-10 20:26N 59°46' E 028°25'0 0.0
2017-Dec-10 19:56N 59°46' E 028°25'0 0.0
2017-Dec-10 19:26N 59°46' E 028°25'0 0.0
2017-Dec-10 18:56N 59°46' E 028°25'0 0.0
2017-Dec-10 18:26N 59°46' E 028°25'0 0.0
2017-Dec-10 17:56N 59°46' E 028°25'0 0.0
2017-Dec-10 17:26N 59°46' E 028°25'0 0.0
2017-Dec-10 16:59N 59°46' E 028°25'0 0.0
2017-Dec-10 16:29N 59°46' E 028°25'0 0.0
2017-Dec-10 15:59N 59°46' E 028°25'0 0.0
2017-Dec-10 15:29N 59°46' E 028°25'0 0.0
2017-Dec-10 14:59N 59°46' E 028°25'0 0.2
2017-Dec-10 14:29N 59°46' E 028°25'0 0.2
2017-Dec-10 13:59N 59°46' E 028°25'0 0.1
2017-Dec-10 13:29N 59°46' E 028°25'0 0.8
2017-Dec-10 13:00N 59°46' E 028°25'2 4.7
2017-Dec-10 12:30N 59°43' E 028°25'1 2.2
2017-Dec-10 12:00N 59°42' E 028°26'0 0.0
2017-Dec-10 11:29N 59°42' E 028°26'0 0.0
2017-Dec-10 10:58N 59°42' E 028°26'0 0.0
2017-Dec-10 10:28N 59°42' E 028°26'0 0.0
2017-Dec-10 09:58N 59°42' E 028°26'0 0.0
2017-Dec-10 09:28N 59°42' E 028°26'0 0.0
2017-Dec-10 08:58N 59°42' E 028°26'0 0.0
2017-Dec-10 08:28N 59°42' E 028°26'0 0.0
2017-Dec-10 07:59N 59°42' E 028°26'0 0.0
2017-Dec-10 07:28N 59°42' E 028°26'0 0.0
2017-Dec-10 06:55N 59°42' E 028°26'0 0.0
2017-Dec-10 06:28N 59°42' E 028°26'0 0.0
2017-Dec-10 05:58N 59°42' E 028°26'0 0.0
2017-Dec-10 05:29N 59°42' E 028°26'0 0.0
2017-Dec-10 04:59N 59°42' E 028°26'0 0.0
2017-Dec-10 04:19N 59°42' E 028°26'0 0.0
2017-Dec-10 03:58N 59°42' E 028°26'0 0.0
2017-Dec-10 03:28N 59°42' E 028°26'0 0.0
2017-Dec-10 02:52N 59°42' E 028°26'0 0.0
2017-Dec-10 02:22N 59°42' E 028°26'0 0.0
2017-Dec-10 01:52N 59°42' E 028°26'0 0.0
2017-Dec-10 01:22N 59°42' E 028°26'0 0.0
2017-Dec-10 00:52N 59°42' E 028°26'0 0.0
2017-Dec-10 00:22N 59°42' E 028°26'0 0.0
2017-Dec-09 23:52N 59°42' E 028°26'0 0.0
2017-Dec-09 23:25N 59°42' E 028°26'0 0.0
2017-Dec-09 22:55N 59°42' E 028°26'0 0.0
2017-Dec-09 22:25N 59°42' E 028°26'0 0.0
2017-Dec-09 21:55N 59°42' E 028°26'0 0.0
2017-Dec-09 21:25N 59°42' E 028°26'0 0.0
2017-Dec-09 20:56N 59°42' E 028°26'0 0.0
2017-Dec-09 20:28N 59°42' E 028°26'0 0.0
2017-Dec-09 19:58N 59°42' E 028°26'0 0.0
2017-Dec-09 19:28N 59°42' E 028°26'0 0.0
2017-Dec-09 18:58N 59°42' E 028°26'0 0.0
2017-Dec-09 18:28N 59°42' E 028°26'0 0.0
2017-Dec-09 17:58N 59°42' E 028°26'0 0.0
2017-Dec-09 17:28N 59°42' E 028°26'0 0.0
2017-Dec-09 16:58N 59°42' E 028°26'0 0.0
2017-Dec-09 16:28N 59°42' E 028°26'0 0.0
2017-Dec-09 15:58N 59°42' E 028°26'0 0.0
2017-Dec-09 15:28N 59°42' E 028°26'0 0.0
2017-Dec-09 14:58N 59°42' E 028°26'0 0.0
2017-Dec-09 14:19N 59°42' E 028°26'0 0.0
2017-Dec-09 13:58N 59°42' E 028°26'0 0.0
2017-Dec-09 13:28N 59°42' E 028°26'0 0.0
2017-Dec-09 12:49N 59°42' E 028°26'0 0.0
2017-Dec-09 12:19N 59°42' E 028°26'0 0.0
2017-Dec-09 11:49N 59°42' E 028°26'0 0.0
2017-Dec-09 11:22N 59°42' E 028°26'0 0.0
2017-Dec-09 10:52N 59°42' E 028°26'0 0.0
2017-Dec-09 10:22N 59°42' E 028°26'0 0.0
2017-Dec-09 09:52N 59°42' E 028°26'0 0.0
2017-Dec-09 09:22N 59°42' E 028°26'0 0.0
2017-Dec-09 08:52N 59°42' E 028°26'0 0.0
2017-Dec-09 08:22N 59°42' E 028°26'0 0.0
2017-Dec-09 07:55N 59°42' E 028°26'0 0.0
2017-Dec-09 07:22N 59°42' E 028°26'0 0.0
2017-Dec-09 06:55N 59°42' E 028°26'0 0.1
2017-Dec-09 06:22N 59°42' E 028°26'1 2.6
2017-Dec-09 06:00N 59°41' E 028°25'3 5.3
2017-Dec-09 05:30N 59°44' E 028°23'4 8.7
2017-Dec-09 05:00N 59°48' E 028°25'612.0
2017-Dec-09 04:30N 59°54' E 028°30'4 7.9
2017-Dec-09 04:00N 59°57' E 028°34'3 5.7
2017-Dec-09 03:31N 59°60' E 028°35'3 6.3
2017-Dec-09 03:01N 60°02' E 028°31'4 7.1
2017-Dec-09 02:30N 60°03' E 028°25'3 7.0
2017-Dec-09 02:01N 60°06' E 028°19'5 9.1
2017-Dec-09 01:31N 60°08' E 028°11'510.8
2017-Dec-09 01:01N 60°09' E 028°01'510.9
2017-Dec-09 00:30N 60°10' E 027°50'5 9.9
2017-Dec-09 00:01N 60°09' E 027°41'611.0
2017-Dec-08 23:31N 60°06' E 027°31'611.6
2017-Dec-08 23:01N 60°03' E 027°21'611.5
2017-Dec-08 22:31N 60°00' E 027°12'610.9
2017-Dec-08 22:00N 59°58' E 027°02'611.2
2017-Dec-08 21:31N 59°59' E 026°51'611.0
2017-Dec-08 21:00N 59°60' E 026°40'611.4
2017-Dec-08 20:31N 59°58' E 026°29'611.2
2017-Dec-08 20:00N 59°56' E 026°18'1611.6
2017-Dec-08 18:39N 59°52' E 025°48'512.6
2017-Dec-08 18:17N 59°51' E 025°39'412.4
2017-Dec-08 17:56N 59°50' E 025°30'512.0
2017-Dec-08 17:30N 59°49' E 025°20'611.6
2017-Dec-08 17:01N 59°48' E 025°09'5 9.3
2017-Dec-08 16:30N 59°47' E 025°00'5 9.8
2017-Dec-08 16:01N 59°46' E 024°51'612.4
2017-Dec-08 15:31N 59°45' E 024°39'611.1
2017-Dec-08 15:01N 59°44' E 024°28'4 8.4
2017-Dec-08 14:31N 59°42' E 024°20'4 7.2
2017-Dec-08 14:00N 59°41' E 024°13'510.8
2017-Dec-08 13:30N 59°40' E 024°03'612.2
2017-Dec-08 13:00N 59°38' E 023°51'30311.7
2017-Dec-07 11:05N 55°19' E 018°57'111.8
2017-Dec-07 10:59N 55°18' E 018°57'611.7
2017-Dec-07 10:31N 55°12' E 018°58'611.5
2017-Dec-07 10:01N 55°07' E 018°60'611.4
2017-Dec-07 09:31N 55°01' E 019°01'611.7
2017-Dec-07 09:01N 54°55' E 019°02'612.1
2017-Dec-07 08:30N 54°49' E 019°03'612.2
2017-Dec-07 08:01N 54°43' E 019°05'612.1
2017-Dec-07 07:31N 54°37' E 019°08'612.5
2017-Dec-07 07:01N 54°32' E 019°03'612.4
2017-Dec-07 06:31N 54°26' E 018°58'4 8.2
2017-Dec-07 06:00N 54°25' E 018°51'3 6.9
2017-Dec-07 05:30N 54°24' E 018°46'2 3.1
2017-Dec-07 04:58N 54°24' E 018°43'0 0.0
2017-Dec-07 04:28N 54°24' E 018°43'0 0.0
2017-Dec-07 03:58N 54°24' E 018°43'0 0.0
2017-Dec-07 03:28N 54°24' E 018°43'0 0.0
2017-Dec-07 02:58N 54°24' E 018°43'0 0.0
2017-Dec-07 02:28N 54°24' E 018°43'0 0.0
2017-Dec-07 01:58N 54°24' E 018°43'0 0.0
2017-Dec-07 01:28N 54°24' E 018°43'0 0.0
2017-Dec-07 00:58N 54°24' E 018°43'  
Track history (hours):
 
Tides and Currents Weather Stations Pressure Air Temp Water Temp Dewpoint Dewpoint Depression Visibility Wind Speed Wind Dir Waves Ship Positions

Leyla Kalkavan

Last reported at 2017-Dec-17 00:30 UTC. Time now 2017-Dec-17 00:39 UTC.
Position N 51°58' E 004°04'.

Type: Tanker. MMSI: 538007390.

Date/timePositionNaut miles runAvg speedWind from/ knotsBaromVisibWave heightAir tempDewpointWater temp
2017-Dec-17 00:30N 51°58' E 004°04'0 0.0
2017-Dec-16 23:57N 51°58' E 004°04'0 0.0
2017-Dec-16 23:30N 51°58' E 004°04'0 0.0
2017-Dec-16 22:57N 51°58' E 004°04'0 0.0
2017-Dec-16 22:30N 51°58' E 004°04'0 0.0
2017-Dec-16 22:00N 51°58' E 004°04'0 0.0
2017-Dec-16 21:30N 51°58' E 004°04'0 0.0
2017-Dec-16 20:57N 51°58' E 004°04'0 0.0
2017-Dec-16 20:27N 51°58' E 004°04'0 0.0
2017-Dec-16 19:57N 51°58' E 004°04'0 0.3
2017-Dec-16 19:30N 51°58' E 004°04'1 1.8
2017-Dec-16 19:00N 51°59' E 004°04'2 4.8
2017-Dec-16 18:30N 51°60' E 004°01'4 7.8
2017-Dec-16 18:00N 52°01' E 003°55'5 9.6
2017-Dec-16 17:30N 52°01' E 003°47'4 8.0
2017-Dec-16 17:00N 52°01' E 003°40'19 9.0
2017-Dec-16 14:52N 51°57' E 003°10'15 1.3
2017-Dec-16 02:54N 52°04' E 002°48'511.6
2017-Dec-16 02:30N 52°07' E 002°52'611.5
2017-Dec-16 02:00N 52°12' E 002°59'611.4
2017-Dec-16 01:29N 52°16' E 003°05'3812.2
2017-Dec-15 22:22N 52°46' E 003°43'513.5
2017-Dec-15 21:58N 52°50' E 003°49'613.7
2017-Dec-15 21:30N 52°55' E 003°56'713.6
2017-Dec-15 21:00N 52°60' E 004°04'1513.7
2017-Dec-15 19:55N 53°09' E 004°23'2312.9
2017-Dec-15 18:08N 53°31' E 004°36'11912.2
2017-Dec-15 08:25N 55°12' E 006°23'612.4
2017-Dec-15 07:57N 55°17' E 006°29'612.4
2017-Dec-15 07:29N 55°22' E 006°35'612.0
2017-Dec-15 07:01N 55°26' E 006°41'612.0
2017-Dec-15 06:30N 55°31' E 006°47'611.9
2017-Dec-15 05:58N 55°36' E 006°53'611.8
2017-Dec-15 05:30N 55°41' E 006°59'16810.5
2017-Dec-14 13:32N 57°48' E 010°20'012.0
2017-Dec-14 13:30N 57°48' E 010°20'611.7
2017-Dec-14 13:00N 57°49' E 010°31'510.7
2017-Dec-14 12:30N 57°50' E 010°41'510.4
2017-Dec-14 12:00N 57°47' E 010°49'5 9.5
2017-Dec-14 11:30N 57°44' E 010°56'4 8.5
2017-Dec-14 11:00N 57°40' E 011°01'611.9
2017-Dec-14 10:30N 57°37' E 011°10'612.0
2017-Dec-14 10:00N 57°33' E 011°18'612.0
2017-Dec-14 09:31N 57°28' E 011°25'612.3
2017-Dec-14 09:00N 57°22' E 011°29'612.7
2017-Dec-14 08:30N 57°16' E 011°33'612.5
2017-Dec-14 08:00N 57°11' E 011°37'712.5
2017-Dec-14 07:25N 57°04' E 011°42'10810.9
2017-Dec-13 21:27N 55°18' E 011°03'511.3
2017-Dec-13 21:00N 55°13' E 011°06'612.0
2017-Dec-13 20:30N 55°08' E 010°59'612.6
2017-Dec-13 20:00N 55°02' E 010°60'612.3
2017-Dec-13 19:30N 54°57' E 010°54'613.0
2017-Dec-13 19:00N 54°50' E 010°50'612.8
2017-Dec-13 18:30N 54°44' E 010°47'510.9
2017-Dec-13 18:00N 54°39' E 010°51'612.6
2017-Dec-13 17:30N 54°36' E 011°00'611.7
2017-Dec-13 17:00N 54°36' E 011°11'611.9
2017-Dec-13 16:30N 54°33' E 011°20'611.8
2017-Dec-13 16:00N 54°31' E 011°29'611.6
2017-Dec-13 15:30N 54°28' E 011°38'611.5
2017-Dec-13 15:00N 54°27' E 011°47'611.5
2017-Dec-13 14:29N 54°26' E 011°58'510.8
2017-Dec-13 14:00N 54°27' E 012°07'4 8.7
2017-Dec-13 13:30N 54°29' E 012°13'5 9.5
2017-Dec-13 13:00N 54°34' E 012°15'74 9.0
2017-Dec-13 04:48N 55°07' E 014°10'310.1
2017-Dec-13 04:30N 55°08' E 014°15'510.3
2017-Dec-13 04:00N 55°10' E 014°23'510.2
2017-Dec-13 03:30N 55°13' E 014°30'510.3
2017-Dec-13 03:00N 55°16' E 014°37'510.2
2017-Dec-13 02:30N 55°19' E 014°44'5 9.3
2017-Dec-13 02:00N 55°19' E 014°52'2 5.0
2017-Dec-13 01:30N 55°19' E 014°56'3 6.5
2017-Dec-13 01:00N 55°21' E 015°01'510.5
2017-Dec-13 00:30N 55°23' E 015°09'611.0
2017-Dec-13 00:00N 55°25' E 015°18'611.2
2017-Dec-12 23:30N 55°27' E 015°28'911.3
2017-Dec-12 22:42N 55°31' E 015°42'211.2
2017-Dec-12 22:30N 55°32' E 015°46'911.1
2017-Dec-12 21:42N 55°35' E 016°00'211.0
2017-Dec-12 21:30N 55°36' E 016°04'511.0
2017-Dec-12 21:00N 55°38' E 016°13'611.1
2017-Dec-12 20:30N 55°40' E 016°22'611.2
2017-Dec-12 20:00N 55°43' E 016°31'32110.9
2017-Dec-11 14:31N 59°38' E 023°20'112.5
2017-Dec-11 14:26N 59°38' E 023°22'612.5
2017-Dec-11 13:59N 59°40' E 023°32'612.6
2017-Dec-11 13:29N 59°41' E 023°44'612.5
2017-Dec-11 13:00N 59°43' E 023°56'712.4
2017-Dec-11 12:28N 59°45' E 024°08'612.5
2017-Dec-11 12:00N 59°46' E 024°19'612.5
2017-Dec-11 11:30N 59°48' E 024°31'612.5
2017-Dec-11 11:00N 59°49' E 024°43'612.7
2017-Dec-11 10:30N 59°51' E 024°56'612.0
2017-Dec-11 10:00N 59°52' E 025°07'612.0
2017-Dec-11 09:30N 59°53' E 025°19'711.8
2017-Dec-11 08:57N 59°54' E 025°32'2112.1
2017-Dec-11 07:15N 59°58' E 026°12'312.3
2017-Dec-11 07:00N 59°59' E 026°18'612.1
2017-Dec-11 06:30N 60°01' E 026°29'611.7
2017-Dec-11 06:00N 60°01' E 026°41'612.4
2017-Dec-11 05:30N 60°00' E 026°53'611.5
2017-Dec-11 05:00N 59°60' E 027°05'612.1
2017-Dec-11 04:30N 60°03' E 027°15'611.9
2017-Dec-11 04:00N 60°06' E 027°25'612.1
2017-Dec-11 03:30N 60°09' E 027°36'611.0
2017-Dec-11 03:00N 60°12' E 027°46'510.5
2017-Dec-11 02:30N 60°11' E 027°56'612.2
2017-Dec-11 02:00N 60°09' E 028°08'611.8
2017-Dec-11 01:30N 60°07' E 028°19'611.4
2017-Dec-11 01:00N 60°04' E 028°28'510.0
2017-Dec-11 00:30N 60°01' E 028°37'510.2
2017-Dec-11 00:00N 59°56' E 028°35'4 8.8
2017-Dec-10 23:30N 59°53' E 028°30'510.7
2017-Dec-10 23:00N 59°48' E 028°25'1 2.2
2017-Dec-10 22:23N 59°46' E 028°25'0 0.0
2017-Dec-10 21:53N 59°46' E 028°25'0 0.0
2017-Dec-10 21:23N 59°46' E 028°25'0 0.0
2017-Dec-10 20:56N 59°46' E 028°25'0 0.0
2017-Dec-10 20:26N 59°46' E 028°25'0 0.0
2017-Dec-10 19:56N 59°46' E 028°25'0 0.0
2017-Dec-10 19:26N 59°46' E 028°25'0 0.0
2017-Dec-10 18:56N 59°46' E 028°25'0 0.0
2017-Dec-10 18:26N 59°46' E 028°25'0 0.0
2017-Dec-10 17:56N 59°46' E 028°25'0 0.0
2017-Dec-10 17:26N 59°46' E 028°25'0 0.0
2017-Dec-10 16:59N 59°46' E 028°25'0 0.0
2017-Dec-10 16:29N 59°46' E 028°25'0 0.0
2017-Dec-10 15:59N 59°46' E 028°25'0 0.0
2017-Dec-10 15:29N 59°46' E 028°25'0 0.0
2017-Dec-10 14:59N 59°46' E 028°25'0 0.2
2017-Dec-10 14:29N 59°46' E 028°25'0 0.2
2017-Dec-10 13:59N 59°46' E 028°25'0 0.1
2017-Dec-10 13:29N 59°46' E 028°25'0 0.8
2017-Dec-10 13:00N 59°46' E 028°25'2 4.7
2017-Dec-10 12:30N 59°43' E 028°25'1 2.2
2017-Dec-10 12:00N 59°42' E 028°26'0 0.0
2017-Dec-10 11:29N 59°42' E 028°26'0 0.0
2017-Dec-10 10:58N 59°42' E 028°26'0 0.0
2017-Dec-10 10:28N 59°42' E 028°26'0 0.0
2017-Dec-10 09:58N 59°42' E 028°26'0 0.0
2017-Dec-10 09:28N 59°42' E 028°26'0 0.0
2017-Dec-10 08:58N 59°42' E 028°26'0 0.0
2017-Dec-10 08:28N 59°42' E 028°26'0 0.0
2017-Dec-10 07:59N 59°42' E 028°26'0 0.0
2017-Dec-10 07:28N 59°42' E 028°26'0 0.0
2017-Dec-10 06:55N 59°42' E 028°26'0 0.0
2017-Dec-10 06:28N 59°42' E 028°26'0 0.0
2017-Dec-10 05:58N 59°42' E 028°26'0 0.0
2017-Dec-10 05:29N 59°42' E 028°26'0 0.0
2017-Dec-10 04:59N 59°42' E 028°26'0 0.0
2017-Dec-10 04:19N 59°42' E 028°26'0 0.0
2017-Dec-10 03:58N 59°42' E 028°26'0 0.0
2017-Dec-10 03:28N 59°42' E 028°26'0 0.0
2017-Dec-10 02:52N 59°42' E 028°26'0 0.0
2017-Dec-10 02:22N 59°42' E 028°26'0 0.0
2017-Dec-10 01:52N 59°42' E 028°26'0 0.0
2017-Dec-10 01:22N 59°42' E 028°26'0 0.0
2017-Dec-10 00:52N 59°42' E 028°26'0 0.0
2017-Dec-10 00:22N 59°42' E 028°26'0 0.0
2017-Dec-09 23:52N 59°42' E 028°26'0 0.0
2017-Dec-09 23:25N 59°42' E 028°26'0 0.0
2017-Dec-09 22:55N 59°42' E 028°26'0 0.0
2017-Dec-09 22:25N 59°42' E 028°26'0 0.0
2017-Dec-09 21:55N 59°42' E 028°26'0 0.0
2017-Dec-09 21:25N 59°42' E 028°26'0 0.0
2017-Dec-09 20:56N 59°42' E 028°26'0 0.0
2017-Dec-09 20:28N 59°42' E 028°26'0 0.0
2017-Dec-09 19:58N 59°42' E 028°26'0 0.0
2017-Dec-09 19:28N 59°42' E 028°26'0 0.0
2017-Dec-09 18:58N 59°42' E 028°26'0 0.0
2017-Dec-09 18:28N 59°42' E 028°26'0 0.0
2017-Dec-09 17:58N 59°42' E 028°26'0 0.0
2017-Dec-09 17:28N 59°42' E 028°26'0 0.0
2017-Dec-09 16:58N 59°42' E 028°26'0 0.0
2017-Dec-09 16:28N 59°42' E 028°26'0 0.0
2017-Dec-09 15:58N 59°42' E 028°26'0 0.0
2017-Dec-09 15:28N 59°42' E 028°26'0 0.0
2017-Dec-09 14:58N 59°42' E 028°26'0 0.0
2017-Dec-09 14:19N 59°42' E 028°26'0 0.0
2017-Dec-09 13:58N 59°42' E 028°26'0 0.0
2017-Dec-09 13:28N 59°42' E 028°26'0 0.0
2017-Dec-09 12:49N 59°42' E 028°26'0 0.0
2017-Dec-09 12:19N 59°42' E 028°26'0 0.0
2017-Dec-09 11:49N 59°42' E 028°26'0 0.0
2017-Dec-09 11:22N 59°42' E 028°26'0 0.0
2017-Dec-09 10:52N 59°42' E 028°26'0 0.0
2017-Dec-09 10:22N 59°42' E 028°26'0 0.0
2017-Dec-09 09:52N 59°42' E 028°26'0 0.0
2017-Dec-09 09:22N 59°42' E 028°26'0 0.0
2017-Dec-09 08:52N 59°42' E 028°26'0 0.0
2017-Dec-09 08:22N 59°42' E 028°26'0 0.0
2017-Dec-09 07:55N 59°42' E 028°26'0 0.0
2017-Dec-09 07:22N 59°42' E 028°26'0 0.0
2017-Dec-09 06:55N 59°42' E 028°26'0 0.1
2017-Dec-09 06:22N 59°42' E 028°26'1 2.6
2017-Dec-09 06:00N 59°41' E 028°25'3 5.3
2017-Dec-09 05:30N 59°44' E 028°23'4 8.7
2017-Dec-09 05:00N 59°48' E 028°25'612.0
2017-Dec-09 04:30N 59°54' E 028°30'4 7.9
2017-Dec-09 04:00N 59°57' E 028°34'3 5.7
2017-Dec-09 03:31N 59°60' E 028°35'3 6.3
2017-Dec-09 03:01N 60°02' E 028°31'4 7.1
2017-Dec-09 02:30N 60°03' E 028°25'3 7.0
2017-Dec-09 02:01N 60°06' E 028°19'5 9.1
2017-Dec-09 01:31N 60°08' E 028°11'510.8
2017-Dec-09 01:01N 60°09' E 028°01'510.9
2017-Dec-09 00:30N 60°10' E 027°50'5 9.9
2017-Dec-09 00:01N 60°09' E 027°41'611.0
2017-Dec-08 23:31N 60°06' E 027°31'611.6
2017-Dec-08 23:01N 60°03' E 027°21'611.5
2017-Dec-08 22:31N 60°00' E 027°12'610.9
2017-Dec-08 22:00N 59°58' E 027°02'611.2
2017-Dec-08 21:31N 59°59' E 026°51'611.0
2017-Dec-08 21:00N 59°60' E 026°40'611.4
2017-Dec-08 20:31N 59°58' E 026°29'611.2
2017-Dec-08 20:00N 59°56' E 026°18'1611.6
2017-Dec-08 18:39N 59°52' E 025°48'512.6
2017-Dec-08 18:17N 59°51' E 025°39'412.4
2017-Dec-08 17:56N 59°50' E 025°30'512.0
2017-Dec-08 17:30N 59°49' E 025°20'611.6
2017-Dec-08 17:01N 59°48' E 025°09'5 9.3
2017-Dec-08 16:30N 59°47' E 025°00'5 9.8
2017-Dec-08 16:01N 59°46' E 024°51'612.4
2017-Dec-08 15:31N 59°45' E 024°39'611.1
2017-Dec-08 15:01N 59°44' E 024°28'4 8.4
2017-Dec-08 14:31N 59°42' E 024°20'4 7.2
2017-Dec-08 14:00N 59°41' E 024°13'510.8
2017-Dec-08 13:30N 59°40' E 024°03'612.2
2017-Dec-08 13:00N 59°38' E 023°51'30311.7
2017-Dec-07 11:05N 55°19' E 018°57'111.8
2017-Dec-07 10:59N 55°18' E 018°57'611.7
2017-Dec-07 10:31N 55°12' E 018°58'611.5
2017-Dec-07 10:01N 55°07' E 018°60'611.4
2017-Dec-07 09:31N 55°01' E 019°01'611.7
2017-Dec-07 09:01N 54°55' E 019°02'612.1
2017-Dec-07 08:30N 54°49' E 019°03'612.2
2017-Dec-07 08:01N 54°43' E 019°05'612.1
2017-Dec-07 07:31N 54°37' E 019°08'612.5
2017-Dec-07 07:01N 54°32' E 019°03'612.4
2017-Dec-07 06:31N 54°26' E 018°58'4 8.2
2017-Dec-07 06:00N 54°25' E 018°51'3 6.9
2017-Dec-07 05:30N 54°24' E 018°46'2 3.1
2017-Dec-07 04:58N 54°24' E 018°43'0 0.0
2017-Dec-07 04:28N 54°24' E 018°43'0 0.0
2017-Dec-07 03:58N 54°24' E 018°43'0 0.0
2017-Dec-07 03:28N 54°24' E 018°43'0 0.0
2017-Dec-07 02:58N 54°24' E 018°43'0 0.0
2017-Dec-07 02:28N 54°24' E 018°43'0 0.0
2017-Dec-07 01:58N 54°24' E 018°43'0 0.0
2017-Dec-07 01:28N 54°24' E 018°43'0 0.0
2017-Dec-07 00:58N 54°24' E 018°43'  

Dump ship's entire track history